createdAt,value
2019-05-19T00:04:05.597Z,94.40
2019-05-19T00:09:11.200Z,95.30
2019-05-19T00:14:16.470Z,91.90
2019-05-19T00:19:26.632Z,93.10
2019-05-19T00:24:29.217Z,92.90
2019-05-19T00:29:34.213Z,92.50
2019-05-19T00:34:38.279Z,92.60
2019-05-19T00:39:43.212Z,91.00
2019-05-19T00:44:49.411Z,91.70
2019-05-19T00:49:54.649Z,91.40
2019-05-19T00:55:00.024Z,91.90
2019-05-19T01:00:06.007Z,91.60
2019-05-19T01:05:13.053Z,90.70
2019-05-19T01:10:18.109Z,91.20
2019-05-19T01:15:23.246Z,90.70
2019-05-19T01:20:28.485Z,90.30
2019-05-19T01:25:33.797Z,91.00
2019-05-19T01:30:39.023Z,90.90
2019-05-19T01:35:42.531Z,90.10
2019-05-19T01:40:47.175Z,90.30
2019-05-19T01:45:52.933Z,90.60
2019-05-19T01:50:57.826Z,89.60
2019-05-19T01:56:02.660Z,87.80
2019-05-19T02:01:07.323Z,87.90
2019-05-19T02:06:12.193Z,87.50
2019-05-19T02:11:16.370Z,86.00
2019-05-19T02:16:21.888Z,87.00
2019-05-19T02:21:25.696Z,87.80
2019-05-19T02:26:30.197Z,86.90
2019-05-19T02:31:34.445Z,86.20
2019-05-19T02:36:38.766Z,84.00
2019-05-19T02:41:46.649Z,87.40
2019-05-19T02:46:53.445Z,89.20
2019-05-19T02:52:00.966Z,91.80
2019-05-19T02:57:06.407Z,90.10
2019-05-19T03:02:12.664Z,92.70
2019-05-19T03:07:16.904Z,94.10
2019-05-19T03:12:21.152Z,95.40
2019-05-19T03:17:26.202Z,96.20
2019-05-19T03:22:31.500Z,97.20
2019-05-19T03:27:36.373Z,97.10
2019-05-19T03:32:50.540Z,98.90
2019-05-19T03:37:55.703Z,98.50
2019-05-19T03:43:00.569Z,99.10
2019-05-19T03:48:06.419Z,99.50
2019-05-19T03:53:11.689Z,99.90
2019-05-19T03:58:17.001Z,99.90
2019-05-19T04:03:22.144Z,99.90
2019-05-19T04:08:27.104Z,99.90
2019-05-19T04:13:32.322Z,99.90
2019-05-19T04:18:37.446Z,99.90
2019-05-19T04:23:42.683Z,99.90
2019-05-19T04:28:47.503Z,99.90
2019-05-19T04:33:52.582Z,99.90
2019-05-19T04:38:57.807Z,99.90
2019-05-19T04:44:03.116Z,99.90
2019-05-19T04:49:09.604Z,99.90
2019-05-19T04:54:15.217Z,99.90
2019-05-19T04:59:20.604Z,99.90
2019-05-19T05:04:29.084Z,99.90
2019-05-19T05:09:32.855Z,99.90
2019-05-19T05:14:38.543Z,99.90
2019-05-19T05:19:44.455Z,99.90
2019-05-19T05:24:49.710Z,99.90
2019-05-19T05:29:54.710Z,99.90
2019-05-19T05:34:59.998Z,99.90
2019-05-19T05:40:05.994Z,99.90
2019-05-19T05:45:12.526Z,99.90
2019-05-19T05:50:18.976Z,99.90
2019-05-19T05:55:24.012Z,99.90
2019-05-19T06:00:29.110Z,99.90
2019-05-19T06:05:33.990Z,99.90
2019-05-19T06:10:37.377Z,99.90
2019-05-19T06:15:42.578Z,99.90
2019-05-19T06:20:48.851Z,99.90
2019-05-19T06:25:54.493Z,99.90
2019-05-19T06:31:01.269Z,99.90
2019-05-19T06:36:06.648Z,99.90
2019-05-19T06:41:11.318Z,99.30
2019-05-19T06:46:15.458Z,99.90
2019-05-19T06:51:19.581Z,99.90
2019-05-19T06:56:24.325Z,98.20
2019-05-19T07:01:28.922Z,96.90
2019-05-19T07:06:34.926Z,94.70
2019-05-19T07:11:39.157Z,93.70
2019-05-19T07:16:45.813Z,94.60
2019-05-19T07:21:50.165Z,93.30
2019-05-19T07:26:54.518Z,90.70
2019-05-19T07:31:59.230Z,88.60
2019-05-19T07:37:03.411Z,86.60
2019-05-19T07:42:07.600Z,88.30
2019-05-19T07:47:12.887Z,85.70
2019-05-19T07:52:19.790Z,83.20
2019-05-19T07:57:25.442Z,80.40
2019-05-19T08:02:30.828Z,81.50
2019-05-19T08:07:35.304Z,81.00
2019-05-19T08:12:39.494Z,81.00
2019-05-19T08:17:45.025Z,82.00
2019-05-19T08:22:51.444Z,77.60
2019-05-19T08:28:07.403Z,78.00
2019-05-19T08:33:04.117Z,74.20
2019-05-19T08:38:09.789Z,76.40
2019-05-19T08:43:15.043Z,70.40
2019-05-19T08:48:20.357Z,73.30
2019-05-19T08:53:27.090Z,70.30
2019-05-19T08:58:32.154Z,70.40
2019-05-19T09:03:37.766Z,67.20
2019-05-19T09:08:43.229Z,64.80
2019-05-19T09:13:48.677Z,67.50
2019-05-19T09:18:54.206Z,66.10
2019-05-19T09:23:59.861Z,63.10
2019-05-19T09:29:05.402Z,64.00
2019-05-19T09:34:10.595Z,58.30
2019-05-19T09:39:15.655Z,58.40
2019-05-19T09:44:21.202Z,59.60
2019-05-19T09:49:36.381Z,58.50
2019-05-19T09:54:45.527Z,57.30
2019-05-19T09:59:49.778Z,59.30
2019-05-19T10:04:55.246Z,56.90
2019-05-19T10:10:06.403Z,56.20
2019-05-19T10:15:13.787Z,57.50
2019-05-19T10:20:19.981Z,54.70
2019-05-19T10:25:25.556Z,52.70
2019-05-19T10:30:30.996Z,52.30
2019-05-19T10:35:37.386Z,55.20
2019-05-19T10:40:42.786Z,52.70
2019-05-19T10:45:59.868Z,52.80
2019-05-19T10:51:03.379Z,53.50
2019-05-19T10:56:07.114Z,53.90
2019-05-19T11:01:12.583Z,53.00
2019-05-19T11:06:16.798Z,53.80
2019-05-19T11:11:21.533Z,50.40
2019-05-19T11:16:26.046Z,52.70
2019-05-19T11:21:30.832Z,50.30
2019-05-19T11:26:34.811Z,51.80
2019-05-19T11:31:38.329Z,49.00
2019-05-19T11:36:42.781Z,49.10
2019-05-19T11:41:47.274Z,47.60
2019-05-19T11:46:52.238Z,47.60
2019-05-19T11:51:56.839Z,48.80
2019-05-19T11:57:01.269Z,48.10
2019-05-19T12:02:06.946Z,44.40
2019-05-19T12:07:12.231Z,45.80
2019-05-19T12:12:19.765Z,47.90
2019-05-19T12:17:23.965Z,45.20
2019-05-19T12:22:28.909Z,44.60
2019-05-19T12:27:35.417Z,44.20
2019-05-19T12:32:41.502Z,45.00
2019-05-19T12:37:45.839Z,43.10
2019-05-19T12:42:51.258Z,46.00
2019-05-19T12:47:57.021Z,42.90
2019-05-19T12:53:02.612Z,41.70
2019-05-19T12:58:09.142Z,39.20
2019-05-19T13:03:14.662Z,38.30
2019-05-19T13:08:20.465Z,38.70
2019-05-19T13:13:26.269Z,37.90
2019-05-19T13:18:31.498Z,36.50
2019-05-19T13:23:37.134Z,39.10
2019-05-19T13:28:42.070Z,36.60
2019-05-19T13:33:47.676Z,33.70
2019-05-19T13:38:54.974Z,35.00
2019-05-19T13:44:01.277Z,33.10
2019-05-19T13:49:07.474Z,35.90
2019-05-19T13:54:13.208Z,33.20
2019-05-19T13:59:18.418Z,36.00
2019-05-19T14:04:23.787Z,33.00
2019-05-19T14:09:29.083Z,33.20
2019-05-19T14:14:34.050Z,34.30
2019-05-19T14:19:39.045Z,32.30
2019-05-19T14:24:44.771Z,33.50
2019-05-19T14:29:50.296Z,31.90
2019-05-19T14:34:55.353Z,31.30
2019-05-19T14:40:01.706Z,31.90
2019-05-19T14:45:07.753Z,32.60
2019-05-19T14:50:14.607Z,32.40
2019-05-19T14:55:19.741Z,30.50
2019-05-19T15:00:24.951Z,32.10
2019-05-19T15:05:30.447Z,32.10
2019-05-19T15:10:36.284Z,32.60
2019-05-19T15:15:41.873Z,31.80
2019-05-19T15:20:46.524Z,32.10
2019-05-19T15:25:50.444Z,32.00
2019-05-19T15:30:56.647Z,32.10
2019-05-19T15:36:01.759Z,31.20
2019-05-19T15:41:08.303Z,30.80
2019-05-19T15:46:12.228Z,29.90
2019-05-19T15:51:29.174Z,28.10
2019-05-19T15:56:31.940Z,30.50
2019-05-19T16:01:36.489Z,30.60
2019-05-19T16:06:41.126Z,31.30
2019-05-19T16:11:45.921Z,29.50
2019-05-19T16:16:51.414Z,29.60
2019-05-19T16:21:56.067Z,30.30
2019-05-19T16:27:01.494Z,30.20
2019-05-19T16:32:07.514Z,31.80
2019-05-19T16:37:13.725Z,32.00
2019-05-19T16:42:19.424Z,31.90
2019-05-19T16:47:25.231Z,33.60
2019-05-19T16:52:31.285Z,33.80
2019-05-19T16:57:37.507Z,32.40
2019-05-19T17:02:43.531Z,32.80
2019-05-19T17:07:49.148Z,33.00
2019-05-19T17:12:55.060Z,35.60
2019-05-19T17:18:00.199Z,35.00
2019-05-19T17:23:05.452Z,35.00
2019-05-19T17:28:11.900Z,35.50
2019-05-19T17:33:17.524Z,36.40
2019-05-19T17:38:28.912Z,37.00
2019-05-19T17:43:36.150Z,37.50
2019-05-19T17:48:41.638Z,38.00
2019-05-19T17:53:47.087Z,37.70
2019-05-19T17:58:52.679Z,38.90
2019-05-19T18:03:58.072Z,47.60
2019-05-19T18:09:04.817Z,53.90
2019-05-19T18:14:11.551Z,59.30
2019-05-19T18:19:16.782Z,65.40
2019-05-19T18:24:22.484Z,67.20
2019-05-19T18:29:31.330Z,68.80
2019-05-19T18:34:34.605Z,69.90
2019-05-19T18:39:40.100Z,72.20
2019-05-19T18:44:46.336Z,72.20
2019-05-19T18:49:51.533Z,74.50
2019-05-19T18:54:56.535Z,75.10
2019-05-19T19:00:01.957Z,76.10
2019-05-19T19:05:07.902Z,75.70
2019-05-19T19:10:13.587Z,76.70
2019-05-19T19:15:19.715Z,77.70
2019-05-19T19:20:25.609Z,76.10
2019-05-19T19:25:31.328Z,77.70
2019-05-19T19:30:36.910Z,77.70
2019-05-19T19:35:42.426Z,75.10
2019-05-19T19:40:47.225Z,76.80
2019-05-19T19:45:51.773Z,77.30
2019-05-19T19:50:59.213Z,77.90
2019-05-19T19:56:02.874Z,78.60
2019-05-19T20:01:06.630Z,81.00
2019-05-19T20:06:10.199Z,82.30
2019-05-19T20:11:16.538Z,81.60
2019-05-19T20:16:21.395Z,83.90
2019-05-19T20:21:25.404Z,86.40
2019-05-19T20:26:30.289Z,86.30
2019-05-19T20:31:34.525Z,85.30
2019-05-19T20:36:39.338Z,81.70
2019-05-19T20:41:43.759Z,84.40
2019-05-19T20:46:48.106Z,85.50
2019-05-19T20:51:52.587Z,86.30
2019-05-19T20:56:57.137Z,85.70
2019-05-19T21:02:02.781Z,86.70
2019-05-19T21:07:08.599Z,86.10
2019-05-19T21:12:14.487Z,85.90
2019-05-19T21:17:19.685Z,86.20
2019-05-19T21:22:26.697Z,86.70
2019-05-19T21:27:32.236Z,87.00
2019-05-19T21:32:37.533Z,87.50
2019-05-19T21:37:42.852Z,87.00
2019-05-19T21:42:48.172Z,86.90
2019-05-19T21:47:54.699Z,86.90
2019-05-19T21:52:59.625Z,87.40
2019-05-19T21:58:04.546Z,86.40
2019-05-19T22:03:09.654Z,86.90
2019-05-19T22:08:17.274Z,86.60
2019-05-19T22:13:22.161Z,86.00
2019-05-19T22:18:27.402Z,87.00
2019-05-19T22:23:32.412Z,83.70
2019-05-19T22:28:37.359Z,86.70
2019-05-19T22:33:42.265Z,82.30
2019-05-19T22:38:47.454Z,84.70
2019-05-19T22:43:52.537Z,85.30
2019-05-19T22:48:58.702Z,82.80
2019-05-19T22:54:03.841Z,84.40
2019-05-19T22:59:19.340Z,83.90
2019-05-19T23:04:15.527Z,84.20
2019-05-19T23:09:20.305Z,82.50
2019-05-19T23:14:25.096Z,82.90
2019-05-19T23:19:30.289Z,83.40
2019-05-19T23:24:35.316Z,83.50
2019-05-19T23:29:40.217Z,83.70
2019-05-19T23:34:45.037Z,84.20
2019-05-19T23:39:50.246Z,84.50
2019-05-19T23:44:55.309Z,84.70
2019-05-19T23:50:01.879Z,85.50
2019-05-19T23:55:07.312Z,85.30
